sensor_id;sensor_type;location;lat;lon;timestamp;P1;durP1;ratioP1;P2;durP2;ratioP2
56291;SDS011;54008;53.606;9.462;2022-07-29T00:02:00;3.58;;;1.75;;
56291;SDS011;54008;53.606;9.462;2022-07-29T00:04:25;4.75;;;1.65;;
56291;SDS011;54008;53.606;9.462;2022-07-29T00:06:51;6.65;;;1.80;;
56291;SDS011;54008;53.606;9.462;2022-07-29T00:09:16;5.53;;;1.70;;
56291;SDS011;54008;53.606;9.462;2022-07-29T00:11:41;5.27;;;1.83;;
56291;SDS011;54008;53.606;9.462;2022-07-29T00:14:07;3.80;;;2.25;;
56291;SDS011;54008;53.606;9.462;2022-07-29T00:16:32;6.20;;;1.70;;
56291;SDS011;54008;53.606;9.462;2022-07-29T00:18:57;3.58;;;1.60;;
56291;SDS011;54008;53.606;9.462;2022-07-29T00:21:23;4.30;;;2.10;;
56291;SDS011;54008;53.606;9.462;2022-07-29T00:23:48;4.37;;;1.80;;
56291;SDS011;54008;53.606;9.462;2022-07-29T00:26:13;2.63;;;1.73;;
56291;SDS011;54008;53.606;9.462;2022-07-29T00:28:38;7.03;;;1.50;;
56291;SDS011;54008;53.606;9.462;2022-07-29T00:31:04;6.88;;;2.10;;
56291;SDS011;54008;53.606;9.462;2022-07-29T00:33:29;6.03;;;1.58;;
56291;SDS011;54008;53.606;9.462;2022-07-29T00:35:54;3.03;;;1.43;;
56291;SDS011;54008;53.606;9.462;2022-07-29T00:38:20;5.30;;;1.48;;
56291;SDS011;54008;53.606;9.462;2022-07-29T00:40:45;4.80;;;1.80;;
56291;SDS011;54008;53.606;9.462;2022-07-29T00:43:12;4.35;;;1.63;;
56291;SDS011;54008;53.606;9.462;2022-07-29T00:45:38;5.15;;;1.83;;
56291;SDS011;54008;53.606;9.462;2022-07-29T00:48:04;5.60;;;1.85;;
56291;SDS011;54008;53.606;9.462;2022-07-29T00:50:30;4.07;;;1.65;;
56291;SDS011;54008;53.606;9.462;2022-07-29T00:52:57;5.03;;;2.33;;
56291;SDS011;54008;53.606;9.462;2022-07-29T00:55:23;5.40;;;1.90;;
56291;SDS011;54008;53.606;9.462;2022-07-29T00:57:48;3.17;;;1.85;;
56291;SDS011;54008;53.606;9.462;2022-07-29T01:00:16;3.25;;;1.70;;
56291;SDS011;54008;53.606;9.462;2022-07-29T01:02:47;6.75;;;2.22;;
56291;SDS011;54008;53.606;9.462;2022-07-29T01:05:13;7.95;;;1.77;;
56291;SDS011;54008;53.606;9.462;2022-07-29T01:07:40;3.97;;;1.58;;
56291;SDS011;54008;53.606;9.462;2022-07-29T01:10:06;4.72;;;1.60;;
56291;SDS011;54008;53.606;9.462;2022-07-29T01:12:34;4.57;;;1.65;;
56291;SDS011;54008;53.606;9.462;2022-07-29T01:15:02;3.65;;;1.67;;
56291;SDS011;54008;53.606;9.462;2022-07-29T01:17:33;2.78;;;1.63;;
56291;SDS011;54008;53.606;9.462;2022-07-29T01:25:43;3.42;;;1.75;;
56291;SDS011;54008;53.606;9.462;2022-07-29T01:28:31;3.45;;;2.05;;
56291;SDS011;54008;53.606;9.462;2022-07-29T01:31:05;4.30;;;1.98;;
56291;SDS011;54008;53.606;9.462;2022-07-29T01:33:33;8.23;;;2.60;;
56291;SDS011;54008;53.606;9.462;2022-07-29T01:37:00;4.28;;;2.28;;
56291;SDS011;54008;53.606;9.462;2022-07-29T01:39:23;6.60;;;1.80;;
56291;SDS011;54008;53.606;9.462;2022-07-29T01:42:04;5.78;;;2.03;;
56291;SDS011;54008;53.606;9.462;2022-07-29T01:44:36;3.42;;;1.75;;
56291;SDS011;54008;53.606;9.462;2022-07-29T01:47:13;6.43;;;1.90;;
56291;SDS011;54008;53.606;9.462;2022-07-29T01:49:43;5.00;;;1.80;;
56291;SDS011;54008;53.606;9.462;2022-07-29T01:52:26;4.63;;;1.95;;
56291;SDS011;54008;53.606;9.462;2022-07-29T01:55:04;2.40;;;1.63;;
56291;SDS011;54008;53.606;9.462;2022-07-29T01:57:34;4.13;;;1.90;;
56291;SDS011;54008;53.606;9.462;2022-07-29T02:00:03;4.05;;;1.65;;
56291;SDS011;54008;53.606;9.462;2022-07-29T02:02:30;6.50;;;1.80;;
56291;SDS011;54008;53.606;9.462;2022-07-29T02:04:57;2.40;;;1.52;;
56291;SDS011;54008;53.606;9.462;2022-07-29T02:07:24;4.93;;;1.88;;
56291;SDS011;54008;53.606;9.462;2022-07-29T02:09:54;4.10;;;1.60;;
56291;SDS011;54008;53.606;9.462;2022-07-29T02:12:21;6.07;;;1.85;;
56291;SDS011;54008;53.606;9.462;2022-07-29T02:14:50;6.13;;;1.90;;
56291;SDS011;54008;53.606;9.462;2022-07-29T02:17:22;3.60;;;1.80;;
56291;SDS011;54008;53.606;9.462;2022-07-29T02:19:51;4.32;;;2.03;;
56291;SDS011;54008;53.606;9.462;2022-07-29T02:22:21;6.10;;;1.90;;
56291;SDS011;54008;53.606;9.462;2022-07-29T02:24:48;7.47;;;2.10;;
56291;SDS011;54008;53.606;9.462;2022-07-29T02:27:15;7.93;;;1.85;;
56291;SDS011;54008;53.606;9.462;2022-07-29T02:29:42;9.43;;;2.33;;
56291;SDS011;54008;53.606;9.462;2022-07-29T02:32:10;5.28;;;2.10;;
56291;SDS011;54008;53.606;9.462;2022-07-29T02:34:38;8.50;;;2.03;;
56291;SDS011;54008;53.606;9.462;2022-07-29T02:37:07;7.50;;;1.85;;
56291;SDS011;54008;53.606;9.462;2022-07-29T02:39:35;5.57;;;1.95;;
56291;SDS011;54008;53.606;9.462;2022-07-29T02:42:03;7.60;;;2.03;;
56291;SDS011;54008;53.606;9.462;2022-07-29T02:44:32;3.92;;;2.65;;
56291;SDS011;54008;53.606;9.462;2022-07-29T02:47:19;10.57;;;2.05;;
56291;SDS011;54008;53.606;9.462;2022-07-29T02:54:58;9.93;;;2.50;;
56291;SDS011;54008;53.606;9.462;2022-07-29T02:57:41;5.60;;;2.40;;
56291;SDS011;54008;53.606;9.462;2022-07-29T03:00:28;6.65;;;2.45;;
56291;SDS011;54008;53.606;9.462;2022-07-29T03:02:54;4.18;;;2.28;;
56291;SDS011;54008;53.606;9.462;2022-07-29T03:05:23;3.70;;;2.13;;
56291;SDS011;54008;53.606;9.462;2022-07-29T03:07:51;7.03;;;2.28;;
56291;SDS011;54008;53.606;9.462;2022-07-29T03:10:20;7.18;;;2.00;;
56291;SDS011;54008;53.606;9.462;2022-07-29T03:12:46;6.78;;;2.80;;
56291;SDS011;54008;53.606;9.462;2022-07-29T03:15:12;4.28;;;2.00;;
56291;SDS011;54008;53.606;9.462;2022-07-29T03:17:39;8.82;;;2.47;;
56291;SDS011;54008;53.606;9.462;2022-07-29T03:20:04;7.57;;;2.35;;
56291;SDS011;54008;53.606;9.462;2022-07-29T03:22:32;7.75;;;2.30;;
56291;SDS011;54008;53.606;9.462;2022-07-29T03:24:57;6.90;;;2.10;;
56291;SDS011;54008;53.606;9.462;2022-07-29T03:27:32;3.92;;;2.33;;
56291;SDS011;54008;53.606;9.462;2022-07-29T03:29:57;4.18;;;2.38;;
56291;SDS011;54008;53.606;9.462;2022-07-29T03:32:22;6.97;;;2.55;;
56291;SDS011;54008;53.606;9.462;2022-07-29T03:34:47;4.07;;;2.30;;
56291;SDS011;54008;53.606;9.462;2022-07-29T03:37:13;9.13;;;2.57;;
56291;SDS011;54008;53.606;9.462;2022-07-29T03:39:39;4.40;;;2.50;;
56291;SDS011;54008;53.606;9.462;2022-07-29T03:42:06;5.22;;;2.20;;
56291;SDS011;54008;53.606;9.462;2022-07-29T03:44:35;6.75;;;2.67;;
56291;SDS011;54008;53.606;9.462;2022-07-29T03:47:02;7.35;;;2.67;;
56291;SDS011;54008;53.606;9.462;2022-07-29T03:49:30;3.58;;;2.35;;
56291;SDS011;54008;53.606;9.462;2022-07-29T03:51:56;4.03;;;2.70;;
56291;SDS011;54008;53.606;9.462;2022-07-29T03:54:22;6.15;;;2.90;;
56291;SDS011;54008;53.606;9.462;2022-07-29T03:56:47;8.48;;;3.28;;
56291;SDS011;54008;53.606;9.462;2022-07-29T03:59:16;5.03;;;3.25;;
56291;SDS011;54008;53.606;9.462;2022-07-29T04:01:44;13.55;;;4.05;;
56291;SDS011;54008;53.606;9.462;2022-07-29T04:04:10;6.60;;;2.88;;
56291;SDS011;54008;53.606;9.462;2022-07-29T04:06:37;7.22;;;2.30;;
56291;SDS011;54008;53.606;9.462;2022-07-29T04:09:04;5.47;;;2.35;;
56291;SDS011;54008;53.606;9.462;2022-07-29T04:11:29;6.47;;;2.45;;
56291;SDS011;54008;53.606;9.462;2022-07-29T04:13:55;8.35;;;2.85;;
56291;SDS011;54008;53.606;9.462;2022-07-29T04:16:20;6.43;;;2.60;;
56291;SDS011;54008;53.606;9.462;2022-07-29T04:18:45;7.47;;;2.30;;
56291;SDS011;54008;53.606;9.462;2022-07-29T04:21:10;3.30;;;1.90;;
56291;SDS011;54008;53.606;9.462;2022-07-29T04:23:36;5.97;;;2.03;;
56291;SDS011;54008;53.606;9.462;2022-07-29T04:26:01;7.72;;;2.28;;
56291;SDS011;54008;53.606;9.462;2022-07-29T04:28:26;10.68;;;3.30;;
56291;SDS011;54008;53.606;9.462;2022-07-29T04:30:52;4.47;;;2.00;;
56291;SDS011;54008;53.606;9.462;2022-07-29T04:33:17;8.10;;;2.77;;
56291;SDS011;54008;53.606;9.462;2022-07-29T04:35:42;6.15;;;2.10;;
56291;SDS011;54008;53.606;9.462;2022-07-29T04:38:07;8.40;;;2.63;;
56291;SDS011;54008;53.606;9.462;2022-07-29T04:40:33;8.60;;;2.40;;
56291;SDS011;54008;53.606;9.462;2022-07-29T04:42:59;12.68;;;2.42;;
56291;SDS011;54008;53.606;9.462;2022-07-29T04:45:25;5.47;;;2.40;;
56291;SDS011;54008;53.606;9.462;2022-07-29T04:47:51;9.43;;;2.25;;
56291;SDS011;54008;53.606;9.462;2022-07-29T04:50:16;6.35;;;2.40;;
56291;SDS011;54008;53.606;9.462;2022-07-29T04:52:41;7.13;;;2.95;;
56291;SDS011;54008;53.606;9.462;2022-07-29T04:55:07;7.40;;;2.80;;
56291;SDS011;54008;53.606;9.462;2022-07-29T04:57:33;7.32;;;2.20;;
56291;SDS011;54008;53.606;9.462;2022-07-29T04:59:58;4.38;;;2.13;;
56291;SDS011;54008;53.606;9.462;2022-07-29T05:02:23;3.58;;;2.08;;
56291;SDS011;54008;53.606;9.462;2022-07-29T05:04:48;7.40;;;2.88;;
56291;SDS011;54008;53.606;9.462;2022-07-29T05:07:14;7.60;;;2.50;;
56291;SDS011;54008;53.606;9.462;2022-07-29T05:09:39;5.70;;;2.92;;
56291;SDS011;54008;53.606;9.462;2022-07-29T05:12:05;2.97;;;2.10;;
56291;SDS011;54008;53.606;9.462;2022-07-29T05:14:30;3.95;;;2.13;;
56291;SDS011;54008;53.606;9.462;2022-07-29T05:16:55;6.63;;;2.53;;
56291;SDS011;54008;53.606;9.462;2022-07-29T05:19:22;9.95;;;2.75;;
56291;SDS011;54008;53.606;9.462;2022-07-29T05:21:47;6.15;;;2.20;;
56291;SDS011;54008;53.606;9.462;2022-07-29T05:24:13;4.55;;;2.33;;
56291;SDS011;54008;53.606;9.462;2022-07-29T05:26:38;11.98;;;2.80;;
56291;SDS011;54008;53.606;9.462;2022-07-29T05:29:04;5.47;;;2.47;;
56291;SDS011;54008;53.606;9.462;2022-07-29T05:31:30;7.45;;;2.55;;
56291;SDS011;54008;53.606;9.462;2022-07-29T05:33:55;7.53;;;2.42;;
56291;SDS011;54008;53.606;9.462;2022-07-29T05:36:20;7.38;;;3.33;;
56291;SDS011;54008;53.606;9.462;2022-07-29T05:38:45;8.60;;;2.63;;
56291;SDS011;54008;53.606;9.462;2022-07-29T05:41:11;8.50;;;3.20;;
56291;SDS011;54008;53.606;9.462;2022-07-29T05:43:36;8.35;;;2.33;;
56291;SDS011;54008;53.606;9.462;2022-07-29T05:46:01;7.32;;;2.80;;
56291;SDS011;54008;53.606;9.462;2022-07-29T05:48:27;5.85;;;2.70;;
56291;SDS011;54008;53.606;9.462;2022-07-29T05:50:52;7.80;;;2.58;;
56291;SDS011;54008;53.606;9.462;2022-07-29T05:53:17;6.13;;;2.60;;
56291;SDS011;54008;53.606;9.462;2022-07-29T05:55:43;7.72;;;2.83;;
56291;SDS011;54008;53.606;9.462;2022-07-29T05:58:08;7.97;;;2.70;;
56291;SDS011;54008;53.606;9.462;2022-07-29T06:00:33;6.28;;;2.55;;
56291;SDS011;54008;53.606;9.462;2022-07-29T06:02:59;5.70;;;2.58;;
56291;SDS011;54008;53.606;9.462;2022-07-29T06:05:24;4.85;;;2.50;;
56291;SDS011;54008;53.606;9.462;2022-07-29T06:07:49;6.30;;;2.40;;
56291;SDS011;54008;53.606;9.462;2022-07-29T06:10:15;5.20;;;2.70;;
56291;SDS011;54008;53.606;9.462;2022-07-29T06:12:40;8.25;;;2.67;;
56291;SDS011;54008;53.606;9.462;2022-07-29T06:15:05;6.57;;;3.00;;
56291;SDS011;54008;53.606;9.462;2022-07-29T06:17:31;7.50;;;2.83;;
56291;SDS011;54008;53.606;9.462;2022-07-29T06:19:56;8.48;;;2.60;;
56291;SDS011;54008;53.606;9.462;2022-07-29T06:22:22;12.10;;;2.65;;
56291;SDS011;54008;53.606;9.462;2022-07-29T06:24:47;8.18;;;2.88;;
56291;SDS011;54008;53.606;9.462;2022-07-29T06:27:12;7.22;;;3.08;;
56291;SDS011;54008;53.606;9.462;2022-07-29T06:29:38;6.32;;;2.67;;
56291;SDS011;54008;53.606;9.462;2022-07-29T06:32:04;7.40;;;2.50;;
56291;SDS011;54008;53.606;9.462;2022-07-29T06:34:29;9.80;;;3.25;;
56291;SDS011;54008;53.606;9.462;2022-07-29T06:36:55;7.93;;;3.10;;
56291;SDS011;54008;53.606;9.462;2022-07-29T06:39:20;10.05;;;3.22;;
56291;SDS011;54008;53.606;9.462;2022-07-29T06:41:46;6.72;;;3.03;;
56291;SDS011;54008;53.606;9.462;2022-07-29T06:44:14;7.38;;;2.30;;
56291;SDS011;54008;53.606;9.462;2022-07-29T06:46:39;4.70;;;2.63;;
56291;SDS011;54008;53.606;9.462;2022-07-29T06:49:04;8.23;;;3.30;;
56291;SDS011;54008;53.606;9.462;2022-07-29T06:51:30;5.63;;;2.90;;
56291;SDS011;54008;53.606;9.462;2022-07-29T06:53:55;5.65;;;3.30;;
56291;SDS011;54008;53.606;9.462;2022-07-29T06:56:22;10.70;;;2.47;;
56291;SDS011;54008;53.606;9.462;2022-07-29T06:58:47;6.72;;;2.75;;
56291;SDS011;54008;53.606;9.462;2022-07-29T07:01:12;8.33;;;3.27;;
56291;SDS011;54008;53.606;9.462;2022-07-29T07:03:38;11.60;;;3.20;;
56291;SDS011;54008;53.606;9.462;2022-07-29T07:06:03;5.45;;;2.67;;
56291;SDS011;54008;53.606;9.462;2022-07-29T07:08:29;8.18;;;3.20;;
56291;SDS011;54008;53.606;9.462;2022-07-29T07:10:54;6.72;;;2.63;;
56291;SDS011;54008;53.606;9.462;2022-07-29T07:13:20;8.30;;;2.60;;
56291;SDS011;54008;53.606;9.462;2022-07-29T07:15:45;5.45;;;2.75;;
56291;SDS011;54008;53.606;9.462;2022-07-29T07:18:13;4.32;;;2.90;;
56291;SDS011;54008;53.606;9.462;2022-07-29T07:20:39;5.32;;;2.78;;
56291;SDS011;54008;53.606;9.462;2022-07-29T07:23:04;4.60;;;2.50;;
56291;SDS011;54008;53.606;9.462;2022-07-29T07:25:30;4.80;;;2.22;;
56291;SDS011;54008;53.606;9.462;2022-07-29T07:27:55;4.50;;;2.30;;
56291;SDS011;54008;53.606;9.462;2022-07-29T07:30:21;7.30;;;3.03;;
56291;SDS011;54008;53.606;9.462;2022-07-29T07:32:46;8.93;;;2.88;;
56291;SDS011;54008;53.606;9.462;2022-07-29T07:35:11;9.45;;;3.75;;
56291;SDS011;54008;53.606;9.462;2022-07-29T07:37:37;7.20;;;2.83;;
56291;SDS011;54008;53.606;9.462;2022-07-29T07:40:05;6.53;;;2.83;;
56291;SDS011;54008;53.606;9.462;2022-07-29T07:42:31;8.57;;;2.70;;
56291;SDS011;54008;53.606;9.462;2022-07-29T07:44:56;6.55;;;3.08;;
56291;SDS011;54008;53.606;9.462;2022-07-29T07:47:21;9.13;;;3.57;;
56291;SDS011;54008;53.606;9.462;2022-07-29T07:49:48;9.10;;;2.72;;
56291;SDS011;54008;53.606;9.462;2022-07-29T07:52:17;10.30;;;3.10;;
56291;SDS011;54008;53.606;9.462;2022-07-29T07:54:45;7.78;;;2.85;;
56291;SDS011;54008;53.606;9.462;2022-07-29T07:57:11;5.60;;;2.85;;
56291;SDS011;54008;53.606;9.462;2022-07-29T07:59:36;8.63;;;2.97;;
56291;SDS011;54008;53.606;9.462;2022-07-29T08:02:02;7.70;;;3.05;;
56291;SDS011;54008;53.606;9.462;2022-07-29T08:04:27;10.25;;;3.22;;
56291;SDS011;54008;53.606;9.462;2022-07-29T08:06:53;5.13;;;2.50;;
56291;SDS011;54008;53.606;9.462;2022-07-29T08:09:19;12.45;;;3.60;;
56291;SDS011;54008;53.606;9.462;2022-07-29T08:11:45;5.97;;;2.40;;
56291;SDS011;54008;53.606;9.462;2022-07-29T08:14:11;5.07;;;2.80;;
56291;SDS011;54008;53.606;9.462;2022-07-29T08:16:38;6.45;;;2.80;;
56291;SDS011;54008;53.606;9.462;2022-07-29T08:19:04;10.35;;;3.10;;
56291;SDS011;54008;53.606;9.462;2022-07-29T08:21:29;5.07;;;3.20;;
56291;SDS011;54008;53.606;9.462;2022-07-29T08:23:55;8.38;;;2.70;;
56291;SDS011;54008;53.606;9.462;2022-07-29T08:26:40;7.10;;;3.00;;
56291;SDS011;54008;53.606;9.462;2022-07-29T08:29:09;8.40;;;2.58;;
56291;SDS011;54008;53.606;9.462;2022-07-29T08:31:38;6.45;;;2.80;;
56291;SDS011;54008;53.606;9.462;2022-07-29T08:34:04;6.70;;;2.70;;
56291;SDS011;54008;53.606;9.462;2022-07-29T08:36:30;6.88;;;3.38;;
56291;SDS011;54008;53.606;9.462;2022-07-29T08:38:56;7.43;;;2.70;;
56291;SDS011;54008;53.606;9.462;2022-07-29T08:41:22;4.30;;;2.72;;
56291;SDS011;54008;53.606;9.462;2022-07-29T08:43:48;6.80;;;2.90;;
56291;SDS011;54008;53.606;9.462;2022-07-29T08:46:14;7.05;;;3.08;;
56291;SDS011;54008;53.606;9.462;2022-07-29T08:48:40;10.93;;;2.88;;
56291;SDS011;54008;53.606;9.462;2022-07-29T08:51:06;7.35;;;3.45;;
56291;SDS011;54008;53.606;9.462;2022-07-29T08:53:32;5.13;;;2.90;;
56291;SDS011;54008;53.606;9.462;2022-07-29T08:55:58;8.50;;;3.40;;
56291;SDS011;54008;53.606;9.462;2022-07-29T08:58:24;7.07;;;2.80;;
56291;SDS011;54008;53.606;9.462;2022-07-29T09:00:52;8.32;;;2.95;;
56291;SDS011;54008;53.606;9.462;2022-07-29T09:03:19;5.90;;;2.67;;
56291;SDS011;54008;53.606;9.462;2022-07-29T09:05:45;6.68;;;2.92;;
56291;SDS011;54008;53.606;9.462;2022-07-29T09:08:17;8.77;;;2.85;;
56291;SDS011;54008;53.606;9.462;2022-07-29T09:10:43;3.97;;;2.58;;
56291;SDS011;54008;53.606;9.462;2022-07-29T09:13:09;7.05;;;3.20;;
56291;SDS011;54008;53.606;9.462;2022-07-29T09:15:35;6.25;;;2.55;;
56291;SDS011;54008;53.606;9.462;2022-07-29T09:18:00;6.50;;;2.97;;
56291;SDS011;54008;53.606;9.462;2022-07-29T09:20:26;8.20;;;2.70;;
56291;SDS011;54008;53.606;9.462;2022-07-29T09:23:12;8.63;;;2.90;;
56291;SDS011;54008;53.606;9.462;2022-07-29T09:25:39;6.68;;;2.55;;
56291;SDS011;54008;53.606;9.462;2022-07-29T09:28:23;7.50;;;2.65;;
56291;SDS011;54008;53.606;9.462;2022-07-29T09:30:52;8.25;;;2.72;;
56291;SDS011;54008;53.606;9.462;2022-07-29T09:35:45;6.13;;;2.80;;
56291;SDS011;54008;53.606;9.462;2022-07-29T09:38:11;6.97;;;2.60;;
56291;SDS011;54008;53.606;9.462;2022-07-29T09:40:37;6.63;;;2.72;;
56291;SDS011;54008;53.606;9.462;2022-07-29T09:43:09;8.43;;;2.60;;
56291;SDS011;54008;53.606;9.462;2022-07-29T09:45:35;6.38;;;2.88;;
56291;SDS011;54008;53.606;9.462;2022-07-29T09:48:15;10.98;;;3.58;;
56291;SDS011;54008;53.606;9.462;2022-07-29T09:50:45;7.47;;;3.00;;
56291;SDS011;54008;53.606;9.462;2022-07-29T09:53:21;6.65;;;2.97;;
56291;SDS011;54008;53.606;9.462;2022-07-29T09:55:55;7.13;;;3.33;;
56291;SDS011;54008;53.606;9.462;2022-07-29T09:58:21;4.53;;;2.77;;
56291;SDS011;54008;53.606;9.462;2022-07-29T10:00:48;6.78;;;3.00;;
56291;SDS011;54008;53.606;9.462;2022-07-29T10:03:14;7.78;;;2.88;;
56291;SDS011;54008;53.606;9.462;2022-07-29T10:05:40;7.00;;;3.13;;
56291;SDS011;54008;53.606;9.462;2022-07-29T10:08:07;4.10;;;2.83;;
56291;SDS011;54008;53.606;9.462;2022-07-29T10:10:34;8.63;;;3.17;;
56291;SDS011;54008;53.606;9.462;2022-07-29T10:13:05;9.95;;;2.97;;
56291;SDS011;54008;53.606;9.462;2022-07-29T10:15:33;10.07;;;2.80;;
56291;SDS011;54008;53.606;9.462;2022-07-29T10:18:05;5.88;;;2.80;;
56291;SDS011;54008;53.606;9.462;2022-07-29T10:20:32;8.38;;;3.13;;
56291;SDS011;54008;53.606;9.462;2022-07-29T10:22:57;8.93;;;3.17;;
56291;SDS011;54008;53.606;9.462;2022-07-29T10:25:23;6.72;;;3.22;;
56291;SDS011;54008;53.606;9.462;2022-07-29T10:27:49;11.48;;;3.50;;
56291;SDS011;54008;53.606;9.462;2022-07-29T10:30:16;9.05;;;3.83;;
56291;SDS011;54008;53.606;9.462;2022-07-29T10:32:47;9.07;;;3.00;;
56291;SDS011;54008;53.606;9.462;2022-07-29T10:43:51;5.90;;;2.83;;
56291;SDS011;54008;53.606;9.462;2022-07-29T10:46:20;6.82;;;3.33;;
56291;SDS011;54008;53.606;9.462;2022-07-29T10:54:14;4.40;;;2.92;;
56291;SDS011;54008;53.606;9.462;2022-07-29T10:56:40;8.90;;;2.92;;
56291;SDS011;54008;53.606;9.462;2022-07-29T11:01:47;4.95;;;2.45;;
56291;SDS011;54008;53.606;9.462;2022-07-29T11:04:14;5.93;;;2.80;;
56291;SDS011;54008;53.606;9.462;2022-07-29T11:09:27;11.85;;;2.38;;
56291;SDS011;54008;53.606;9.462;2022-07-29T11:11:54;5.88;;;2.33;;
56291;SDS011;54008;53.606;9.462;2022-07-29T11:17:16;6.05;;;2.30;;
56291;SDS011;54008;53.606;9.462;2022-07-29T11:19:42;4.00;;;1.73;;
56291;SDS011;54008;53.606;9.462;2022-07-29T11:22:08;6.03;;;1.98;;
56291;SDS011;54008;53.606;9.462;2022-07-29T11:24:34;5.57;;;1.75;;
56291;SDS011;54008;53.606;9.462;2022-07-29T11:27:17;5.13;;;2.17;;
56291;SDS011;54008;53.606;9.462;2022-07-29T11:32:14;3.30;;;1.50;;
56291;SDS011;54008;53.606;9.462;2022-07-29T11:34:41;6.63;;;1.90;;
56291;SDS011;54008;53.606;9.462;2022-07-29T11:39:42;5.20;;;1.92;;
56291;SDS011;54008;53.606;9.462;2022-07-29T11:47:23;5.20;;;1.70;;
56291;SDS011;54008;53.606;9.462;2022-07-29T11:49:50;9.95;;;1.90;;
56291;SDS011;54008;53.606;9.462;2022-07-29T11:52:16;4.90;;;1.88;;
56291;SDS011;54008;53.606;9.462;2022-07-29T11:54:42;5.68;;;1.70;;
56291;SDS011;54008;53.606;9.462;2022-07-29T11:57:09;4.88;;;1.75;;
56291;SDS011;54008;53.606;9.462;2022-07-29T11:59:44;7.35;;;2.25;;
56291;SDS011;54008;53.606;9.462;2022-07-29T12:02:11;3.67;;;1.45;;
56291;SDS011;54008;53.606;9.462;2022-07-29T12:04:47;4.53;;;1.75;;
56291;SDS011;54008;53.606;9.462;2022-07-29T12:07:30;7.30;;;1.45;;
56291;SDS011;54008;53.606;9.462;2022-07-29T12:09:56;6.20;;;1.50;;
56291;SDS011;54008;53.606;9.462;2022-07-29T12:12:21;5.40;;;1.60;;
56291;SDS011;54008;53.606;9.462;2022-07-29T12:14:47;4.18;;;1.80;;
56291;SDS011;54008;53.606;9.462;2022-07-29T12:17:25;8.23;;;3.03;;
56291;SDS011;54008;53.606;9.462;2022-07-29T12:19:59;9.82;;;2.13;;
56291;SDS011;54008;53.606;9.462;2022-07-29T12:22:29;3.15;;;1.55;;
56291;SDS011;54008;53.606;9.462;2022-07-29T12:25:03;4.93;;;1.70;;
56291;SDS011;54008;53.606;9.462;2022-07-29T12:27:29;4.30;;;1.40;;
56291;SDS011;54008;53.606;9.462;2022-07-29T12:29:59;3.35;;;1.30;;
56291;SDS011;54008;53.606;9.462;2022-07-29T12:32:33;3.65;;;1.23;;
56291;SDS011;54008;53.606;9.462;2022-07-29T12:35:04;3.63;;;1.67;;
56291;SDS011;54008;53.606;9.462;2022-07-29T12:37:32;7.95;;;1.77;;
56291;SDS011;54008;53.606;9.462;2022-07-29T12:40:03;4.80;;;1.33;;
56291;SDS011;54008;53.606;9.462;2022-07-29T12:42:29;4.10;;;1.55;;
56291;SDS011;54008;53.606;9.462;2022-07-29T12:44:55;3.75;;;1.63;;
56291;SDS011;54008;53.606;9.462;2022-07-29T12:47:20;8.38;;;1.70;;
56291;SDS011;54008;53.606;9.462;2022-07-29T12:49:46;5.60;;;2.20;;
56291;SDS011;54008;53.606;9.462;2022-07-29T12:52:28;4.85;;;1.70;;
56291;SDS011;54008;53.606;9.462;2022-07-29T12:54:55;3.30;;;1.70;;
56291;SDS011;54008;53.606;9.462;2022-07-29T12:57:21;4.80;;;1.90;;
56291;SDS011;54008;53.606;9.462;2022-07-29T13:02:34;7.47;;;1.75;;
56291;SDS011;54008;53.606;9.462;2022-07-29T13:05:00;4.78;;;1.42;;
56291;SDS011;54008;53.606;9.462;2022-07-29T13:07:30;3.63;;;1.30;;
56291;SDS011;54008;53.606;9.462;2022-07-29T13:15:32;6.30;;;1.42;;
56291;SDS011;54008;53.606;9.462;2022-07-29T13:17:58;3.08;;;1.70;;
56291;SDS011;54008;53.606;9.462;2022-07-29T13:20:25;3.92;;;1.55;;
56291;SDS011;54008;53.606;9.462;2022-07-29T13:25:27;6.45;;;1.90;;
56291;SDS011;54008;53.606;9.462;2022-07-29T13:27:54;5.05;;;1.60;;
56291;SDS011;54008;53.606;9.462;2022-07-29T13:30:20;3.70;;;1.67;;
56291;SDS011;54008;53.606;9.462;2022-07-29T13:32:46;5.28;;;1.55;;
56291;SDS011;54008;53.606;9.462;2022-07-29T13:35:12;3.67;;;1.40;;
56291;SDS011;54008;53.606;9.462;2022-07-29T13:37:38;3.00;;;1.20;;
56291;SDS011;54008;53.606;9.462;2022-07-29T13:40:04;5.83;;;1.20;;
56291;SDS011;54008;53.606;9.462;2022-07-29T13:42:30;3.90;;;1.33;;
56291;SDS011;54008;53.606;9.462;2022-07-29T13:44:57;3.05;;;1.23;;
56291;SDS011;54008;53.606;9.462;2022-07-29T13:47:22;7.57;;;1.60;;
56291;SDS011;54008;53.606;9.462;2022-07-29T13:49:48;2.88;;;1.30;;
56291;SDS011;54008;53.606;9.462;2022-07-29T13:52:14;6.72;;;2.00;;
56291;SDS011;54008;53.606;9.462;2022-07-29T13:54:40;4.00;;;1.65;;
56291;SDS011;54008;53.606;9.462;2022-07-29T13:57:06;5.75;;;1.50;;
56291;SDS011;54008;53.606;9.462;2022-07-29T13:59:32;5.28;;;1.40;;
56291;SDS011;54008;53.606;9.462;2022-07-29T14:01:57;2.53;;;1.40;;
56291;SDS011;54008;53.606;9.462;2022-07-29T14:04:23;3.13;;;1.20;;
56291;SDS011;54008;53.606;9.462;2022-07-29T14:06:49;9.13;;;1.50;;
56291;SDS011;54008;53.606;9.462;2022-07-29T14:09:14;3.33;;;1.50;;
56291;SDS011;54008;53.606;9.462;2022-07-29T14:11:40;1.80;;;1.40;;
56291;SDS011;54008;53.606;9.462;2022-07-29T14:14:05;6.28;;;1.80;;
56291;SDS011;54008;53.606;9.462;2022-07-29T14:16:31;3.83;;;1.40;;
56291;SDS011;54008;53.606;9.462;2022-07-29T14:18:56;6.77;;;1.90;;
56291;SDS011;54008;53.606;9.462;2022-07-29T14:21:21;5.80;;;2.27;;
56291;SDS011;54008;53.606;9.462;2022-07-29T14:23:46;5.28;;;1.50;;
56291;SDS011;54008;53.606;9.462;2022-07-29T14:26:12;3.90;;;1.63;;
56291;SDS011;54008;53.606;9.462;2022-07-29T14:28:38;7.82;;;2.20;;
56291;SDS011;54008;53.606;9.462;2022-07-29T14:31:03;6.73;;;1.73;;
56291;SDS011;54008;53.606;9.462;2022-07-29T14:33:28;2.67;;;1.47;;
56291;SDS011;54008;53.606;9.462;2022-07-29T14:35:53;5.30;;;1.93;;
56291;SDS011;54008;53.606;9.462;2022-07-29T14:38:19;3.05;;;1.65;;
56291;SDS011;54008;53.606;9.462;2022-07-29T14:40:44;6.13;;;1.90;;
56291;SDS011;54008;53.606;9.462;2022-07-29T14:43:11;5.65;;;2.67;;
56291;SDS011;54008;53.606;9.462;2022-07-29T14:45:36;6.18;;;1.60;;
56291;SDS011;54008;53.606;9.462;2022-07-29T14:48:02;4.73;;;1.70;;
56291;SDS011;54008;53.606;9.462;2022-07-29T14:50:27;5.72;;;1.90;;
56291;SDS011;54008;53.606;9.462;2022-07-29T14:52:52;5.23;;;1.57;;
56291;SDS011;54008;53.606;9.462;2022-07-29T14:55:18;15.45;;;2.50;;
56291;SDS011;54008;53.606;9.462;2022-07-29T14:57:43;12.68;;;2.42;;
56291;SDS011;54008;53.606;9.462;2022-07-29T15:00:08;5.57;;;2.10;;
56291;SDS011;54008;53.606;9.462;2022-07-29T15:02:35;4.57;;;1.80;;
56291;SDS011;54008;53.606;9.462;2022-07-29T15:05:00;6.68;;;2.08;;
56291;SDS011;54008;53.606;9.462;2022-07-29T15:07:25;6.27;;;2.10;;
56291;SDS011;54008;53.606;9.462;2022-07-29T15:09:51;4.63;;;1.90;;
56291;SDS011;54008;53.606;9.462;2022-07-29T15:12:16;5.40;;;2.77;;
56291;SDS011;54008;53.606;9.462;2022-07-29T15:14:41;5.77;;;2.23;;
56291;SDS011;54008;53.606;9.462;2022-07-29T15:17:07;5.95;;;1.95;;
56291;SDS011;54008;53.606;9.462;2022-07-29T15:19:32;5.13;;;1.87;;
56291;SDS011;54008;53.606;9.462;2022-07-29T15:21:58;5.00;;;1.60;;
56291;SDS011;54008;53.606;9.462;2022-07-29T15:24:23;6.90;;;2.35;;
56291;SDS011;54008;53.606;9.462;2022-07-29T15:26:48;7.80;;;1.77;;
56291;SDS011;54008;53.606;9.462;2022-07-29T15:29:14;6.03;;;1.90;;
56291;SDS011;54008;53.606;9.462;2022-07-29T15:31:39;3.63;;;1.70;;
56291;SDS011;54008;53.606;9.462;2022-07-29T15:34:05;7.22;;;1.80;;
56291;SDS011;54008;53.606;9.462;2022-07-29T15:36:30;3.50;;;1.45;;
56291;SDS011;54008;53.606;9.462;2022-07-29T15:38:56;6.53;;;2.38;;
56291;SDS011;54008;53.606;9.462;2022-07-29T15:41:21;5.35;;;2.10;;
56291;SDS011;54008;53.606;9.462;2022-07-29T15:43:47;5.70;;;2.03;;
56291;SDS011;54008;53.606;9.462;2022-07-29T15:46:13;5.55;;;2.42;;